Autryville, North Carolina
Current Conditions -  °F | °C
As of 11:53 PM on Thursday 27 Nov 2014 (Local Time) from KFAY Reporting Station
Clear Clear  
Wind Chill: 32°   Ceiling: Unl
Heat Index: 37°   Visibility: 10mi
Dew Point: 27°   Wind: 7mph
Humidity: 67%   Direction: 330°NNW
Pressure: 30.26"   Gusts: NA
Location:  35°N, 78.64°W
Report Text: KFAY 280453Z AUTO 33006KT 10SM CLR 03/M03 A3026 RMK AO2 SLP241 T00281028 401220028
Loading
Personal Weather Stations






























Interactive Weather Map New forecast layout! Learn more

10-Day Weather Forecast

Advertisements
Track Severe Weather on mobile